createdAt,value
2023-11-26T00:03:51.093Z,4.75
2023-11-26T00:09:12.905Z,5.60
2023-11-26T00:14:38.578Z,5.43
2023-11-26T00:20:00.448Z,5.30
2023-11-26T00:25:22.336Z,4.88
2023-11-26T00:30:44.216Z,5.13
2023-11-26T00:36:06.396Z,4.93
2023-11-26T00:41:28.235Z,4.60
2023-11-26T00:46:50.242Z,5.28
2023-11-26T00:52:12.057Z,6.15
2023-11-26T00:57:33.888Z,5.13
2023-11-26T01:02:56.678Z,4.93
2023-11-26T01:08:18.665Z,5.43
2023-11-26T01:13:41.406Z,4.97
2023-11-26T01:19:03.296Z,5.38
2023-11-26T01:24:25.045Z,5.05
2023-11-26T01:29:48.474Z,5.28
2023-11-26T01:35:10.258Z,8.35
2023-11-26T01:40:39.098Z,4.63
2023-11-26T01:46:09.031Z,4.68
2023-11-26T01:51:32.234Z,4.07
2023-11-26T01:56:54.946Z,4.53
2023-11-26T02:02:16.846Z,5.05
2023-11-26T02:07:43.031Z,4.55
2023-11-26T02:13:06.465Z,5.15
2023-11-26T02:18:28.245Z,4.20
2023-11-26T02:23:50.405Z,4.00
2023-11-26T02:29:12.303Z,3.83
2023-11-26T02:34:34.934Z,4.05
2023-11-26T02:39:56.724Z,4.13
2023-11-26T02:45:18.511Z,3.78
2023-11-26T02:50:40.324Z,4.05
2023-11-26T02:56:02.184Z,3.58
2023-11-26T03:01:24.051Z,3.90
2023-11-26T03:06:45.948Z,3.97
2023-11-26T03:12:08.006Z,3.60
2023-11-26T03:17:30.422Z,3.63
2023-11-26T03:22:52.276Z,4.13
2023-11-26T03:28:14.111Z,4.45
2023-11-26T03:33:36.034Z,4.68
2023-11-26T03:38:57.922Z,4.25
2023-11-26T03:44:19.790Z,4.18
2023-11-26T03:49:41.575Z,4.45
2023-11-26T03:55:03.608Z,3.90
2023-11-26T04:00:25.419Z,3.92
2023-11-26T04:05:47.260Z,3.42
2023-11-26T04:11:09.123Z,3.78
2023-11-26T04:16:30.993Z,3.80
2023-11-26T04:21:52.829Z,3.60
2023-11-26T04:27:14.621Z,3.63
2023-11-26T04:32:36.578Z,3.22
2023-11-26T04:37:58.413Z,2.92
2023-11-26T04:43:20.196Z,2.42
2023-11-26T04:48:42.323Z,2.30
2023-11-26T04:54:04.316Z,2.38
2023-11-26T04:59:26.204Z,2.50
2023-11-26T05:04:48.016Z,2.67
2023-11-26T05:10:10.036Z,3.15
2023-11-26T05:15:31.941Z,2.92
2023-11-26T05:20:53.714Z,2.72
2023-11-26T05:26:15.806Z,2.65
2023-11-26T05:31:37.645Z,3.00
2023-11-26T05:36:59.436Z,3.33
2023-11-26T05:42:21.193Z,3.10
2023-11-26T05:47:43.231Z,3.38
2023-11-26T05:58:31.879Z,3.13
2023-11-26T06:03:54.086Z,3.45
2023-11-26T06:09:15.996Z,3.22
2023-11-26T06:14:37.824Z,3.45
2023-11-26T06:19:59.589Z,3.58
2023-11-26T06:25:21.509Z,4.00
2023-11-26T06:30:43.304Z,3.63
2023-11-26T06:36:05.320Z,3.08
2023-11-26T06:41:30.003Z,4.28
2023-11-26T06:46:52.826Z,4.90
2023-11-26T06:52:14.654Z,5.05
2023-11-26T06:57:36.527Z,4.88
2023-11-26T07:02:58.375Z,5.15
2023-11-26T07:12:07.553Z,4.50
2023-11-26T07:17:29.405Z,4.78
2023-11-26T07:22:51.222Z,3.13
2023-11-26T07:28:13.017Z,3.20
2023-11-26T07:33:34.793Z,2.90
2023-11-26T07:38:57.282Z,4.00
2023-11-26T07:44:19.052Z,4.68
2023-11-26T07:49:40.796Z,4.13
2023-11-26T07:55:02.606Z,6.43
2023-11-26T08:00:24.441Z,4.78
2023-11-26T08:05:47.772Z,5.95
2023-11-26T08:11:10.680Z,4.25
2023-11-26T08:16:32.471Z,4.53
2023-11-26T08:21:54.338Z,3.72
2023-11-26T08:27:16.199Z,2.88
2023-11-26T08:32:38.033Z,3.55
2023-11-26T08:38:00.704Z,3.17
2023-11-26T08:43:22.625Z,3.10
2023-11-26T08:48:45.550Z,2.95
2023-11-26T08:54:07.514Z,3.40
2023-11-26T08:59:29.289Z,3.70
2023-11-26T09:04:51.063Z,3.70
2023-11-26T09:10:14.583Z,3.75
2023-11-26T09:15:36.487Z,3.58
2023-11-26T09:20:58.346Z,3.83
2023-11-26T09:26:20.160Z,3.97
2023-11-26T09:31:43.013Z,4.70
2023-11-26T09:37:05.070Z,4.90
2023-11-26T09:42:27.127Z,4.88
2023-11-26T09:47:50.126Z,4.25
2023-11-26T09:53:14.187Z,4.22
2023-11-26T09:58:39.561Z,4.15
2023-11-26T10:04:02.873Z,4.05
2023-11-26T10:09:24.716Z,4.70
2023-11-26T10:14:46.581Z,4.05
2023-11-26T10:20:18.580Z,3.72
2023-11-26T10:25:44.642Z,3.47
2023-11-26T10:31:06.786Z,3.80
2023-11-26T10:36:31.896Z,4.40
2023-11-26T10:41:55.342Z,3.20
2023-11-26T10:47:21.851Z,2.97
2023-11-26T10:58:17.596Z,2.65
2023-11-26T11:03:39.398Z,2.80
2023-11-26T11:09:01.392Z,2.30
2023-11-26T11:14:25.864Z,2.17
2023-11-26T11:19:49.182Z,2.50
2023-11-26T11:25:13.220Z,2.70
2023-11-26T11:30:51.846Z,2.40
2023-11-26T11:36:42.831Z,2.38
2023-11-26T11:42:04.644Z,2.50
2023-11-26T11:47:39.580Z,2.97
2023-11-26T11:53:01.449Z,3.13
2023-11-26T11:58:23.293Z,2.22
2023-11-26T12:03:47.800Z,1.90
2023-11-26T12:09:09.626Z,2.08
2023-11-26T12:14:31.760Z,2.10
2023-11-26T12:19:53.725Z,2.00
2023-11-26T12:25:15.533Z,2.22
2023-11-26T12:30:38.556Z,2.22
2023-11-26T12:36:00.797Z,2.15
2023-11-26T12:41:22.750Z,2.00
2023-11-26T12:46:44.635Z,1.83
2023-11-26T12:52:07.620Z,1.80
2023-11-26T12:57:29.639Z,2.00
2023-11-26T13:03:03.840Z,2.05
2023-11-26T13:08:26.089Z,2.03
2023-11-26T13:13:47.968Z,2.03
2023-11-26T13:19:09.760Z,2.70
2023-11-26T13:24:31.630Z,2.00
2023-11-26T13:29:53.417Z,2.25
2023-11-26T13:35:15.197Z,1.90
2023-11-26T13:40:41.977Z,2.40
2023-11-26T13:46:03.836Z,2.30
2023-11-26T13:51:25.716Z,2.47
2023-11-26T13:56:47.546Z,2.40
2023-11-26T14:02:09.451Z,2.70
2023-11-26T14:07:31.275Z,2.70
2023-11-26T14:12:53.400Z,2.42
2023-11-26T14:18:15.197Z,2.30
2023-11-26T14:23:37.040Z,2.63
2023-11-26T14:28:58.800Z,2.35
2023-11-26T14:34:20.570Z,2.58
2023-11-26T14:39:42.389Z,2.85
2023-11-26T14:45:05.256Z,2.78
2023-11-26T14:50:27.010Z,3.03
2023-11-26T14:55:48.744Z,2.80
2023-11-26T15:01:13.751Z,2.47
2023-11-26T15:06:35.586Z,3.10
2023-11-26T15:11:57.505Z,3.30
2023-11-26T15:17:19.404Z,3.30
2023-11-26T15:22:42.237Z,2.92
2023-11-26T15:28:04.262Z,3.55
2023-11-26T15:33:26.191Z,3.35
2023-11-26T15:38:49.061Z,2.78
2023-11-26T15:44:10.892Z,3.50
2023-11-26T15:49:32.684Z,3.25
2023-11-26T15:54:54.502Z,3.47
2023-11-26T16:00:16.465Z,3.28
2023-11-26T16:05:38.226Z,3.92
2023-11-26T16:11:01.081Z,3.97
2023-11-26T16:16:22.961Z,3.17
2023-11-26T16:21:44.771Z,3.78
2023-11-26T16:27:06.584Z,3.45
2023-11-26T16:32:28.391Z,3.42
2023-11-26T16:37:50.218Z,3.42
2023-11-26T16:43:12.149Z,3.38
2023-11-26T16:48:33.994Z,4.03
2023-11-26T16:53:57.506Z,3.83
2023-11-26T16:59:20.937Z,3.20
2023-11-26T17:04:42.816Z,3.28
2023-11-26T17:10:04.930Z,3.83
2023-11-26T17:15:26.742Z,4.68
2023-11-26T17:20:48.981Z,3.10
2023-11-26T17:26:10.872Z,3.60
2023-11-26T17:31:32.746Z,3.60
2023-11-26T17:36:57.097Z,4.53
2023-11-26T17:42:20.465Z,3.70
2023-11-26T17:47:42.247Z,3.33
2023-11-26T17:53:10.170Z,3.80
2023-11-26T17:58:32.935Z,4.25
2023-11-26T18:03:56.330Z,3.65
2023-11-26T18:09:18.340Z,3.88
2023-11-26T18:14:40.166Z,3.80
2023-11-26T18:20:02.149Z,4.03
2023-11-26T18:25:24.006Z,4.07
2023-11-26T18:30:45.890Z,4.07
2023-11-26T18:36:15.085Z,3.97
2023-11-26T18:41:36.988Z,4.32
2023-11-26T18:46:58.853Z,3.70
2023-11-26T18:52:20.932Z,3.85
2023-11-26T18:57:42.771Z,4.20
2023-11-26T19:03:04.688Z,4.03
2023-11-26T19:08:26.516Z,3.85
2023-11-26T19:13:48.305Z,3.75
2023-11-26T19:19:10.200Z,4.10
2023-11-26T19:24:32.142Z,4.30
2023-11-26T19:29:53.985Z,8.35
2023-11-26T19:35:15.886Z,5.03
2023-11-26T19:40:39.581Z,4.47
2023-11-26T19:46:01.651Z,4.05
2023-11-26T19:51:23.722Z,4.35
2023-11-26T19:56:45.670Z,4.22
2023-11-26T20:02:07.568Z,4.15
2023-11-26T20:07:29.400Z,4.40
2023-11-26T20:12:51.284Z,4.03
2023-11-26T20:18:13.217Z,4.43
2023-11-26T20:23:35.773Z,3.97
2023-11-26T20:28:57.600Z,11.32
2023-11-26T20:34:19.900Z,4.40
2023-11-26T20:39:41.758Z,3.92
2023-11-26T20:45:03.983Z,3.92
2023-11-26T20:50:25.782Z,4.55
2023-11-26T20:55:47.594Z,4.50
2023-11-26T21:01:10.798Z,4.40
2023-11-26T21:06:32.720Z,3.90
2023-11-26T21:11:54.782Z,3.90
2023-11-26T21:17:16.723Z,4.03
2023-11-26T21:22:38.523Z,4.05
2023-11-26T21:28:00.319Z,3.80
2023-11-26T21:33:22.152Z,4.03
2023-11-26T21:38:43.922Z,4.05
2023-11-26T21:44:05.735Z,3.63
2023-11-26T21:49:27.531Z,3.55
2023-11-26T21:54:49.328Z,3.40
2023-11-26T22:00:11.677Z,4.03
2023-11-26T22:05:33.446Z,3.78
2023-11-26T22:10:55.267Z,3.92
2023-11-26T22:16:20.548Z,4.40
2023-11-26T22:21:42.433Z,4.28
2023-11-26T22:27:04.590Z,3.75
2023-11-26T22:32:26.388Z,3.35
2023-11-26T22:37:48.363Z,3.92
2023-11-26T22:43:10.215Z,3.50
2023-11-26T22:48:32.028Z,4.05
2023-11-26T22:53:55.488Z,3.80
2023-11-26T22:59:17.419Z,3.58
2023-11-26T23:04:39.221Z,4.40
2023-11-26T23:10:01.043Z,3.83
2023-11-26T23:15:22.888Z,3.28
2023-11-26T23:20:45.873Z,3.17
2023-11-26T23:26:08.299Z,3.28
2023-11-26T23:31:30.141Z,3.72
2023-11-26T23:36:51.965Z,3.78
2023-11-26T23:42:13.821Z,3.70
2023-11-26T23:47:35.643Z,3.45
2023-11-26T23:52:57.449Z,3.65
2023-11-26T23:58:19.264Z,4.05
